Time;durP1;ratioP1;P1;durP2;ratioP2;P2;SDS_P1;SDS_P2;PMS_P1;PMS_P2;Temp;Humidity;BMP_temperature;BMP_pressure;BME280_temperature;BME280_humidity;BME280_pressure;Samples;Min_cycle;Max_cycle;Signal;HPM_P1;HPM_P2
2022/02/05 00:02:28;;;;;;;;;1.00;1.00;;;;;;;;5076995;28;45402;-70
2022/02/05 00:04:54;;;;;;;;;1.00;1.00;;;;;;;;5072750;28;46493;-70
2022/02/05 00:07:19;;;;;;;;;2.50;1.50;;;;;;;;5079283;27;45410;-68
2022/02/05 00:10:09;;;;;;;;;1.75;0.50;;;;;;;;5072591;28;45613;-69
2022/02/05 00:12:47;;;;;;;;;2.25;1.50;;;;;;;;5071600;28;45466;-68
2022/02/05 00:39:52;;;;;;;;;2.75;1.75;;;;;;;;5062708;28;45414;-72
2022/02/05 00:42:38;;;;;;;;;2.33;1.00;;;;;;;;5060804;27;45495;-72
2022/02/05 00:45:07;;;;;;;;;1.25;1.00;;;;;;;;5059657;28;45634;-72
2022/02/05 00:47:35;;;;;;;;;2.00;2.00;;;;;;;;5062187;27;46713;-72
2022/02/05 00:50:03;;;;;;;;;1.00;0.75;;;;;;;;5059607;28;45393;-71
2022/02/05 00:52:28;;;;;;;;;1.50;1.50;;;;;;;;5061598;28;45612;-72
2022/02/05 00:55:02;;;;;;;;;0.33;0.33;;;;;;;;5061274;28;45364;-71
2022/02/05 00:59:52;;;;;;;;;3.00;3.00;;;;;;;;5058379;28;45492;-71
2022/02/05 01:02:17;;;;;;;;;0.00;0.00;;;;;;;;5070554;28;45577;-72
2022/02/05 01:04:43;;;;;;;;;3.00;1.00;;;;;;;;5077337;27;45288;-72
2022/02/05 01:07:08;;;;;;;;;3.00;1.00;;;;;;;;5074870;27;46550;-71
2022/02/05 01:09:33;;;;;;;;;3.33;2.00;;;;;;;;5073290;27;45289;-71
2022/02/05 01:12:01;;;;;;;;;2.00;2.00;;;;;;;;5072735;28;45543;-72
2022/02/05 01:14:31;;;;;;;;;1.00;0.00;;;;;;;;5057775;28;45598;-71
2022/02/05 01:17:01;;;;;;;;;4.33;1.33;;;;;;;;5065787;28;46574;-71
2022/02/05 01:22:05;;;;;;;;;3.00;1.00;;;;;;;;5068249;27;45981;-70
2022/02/05 01:24:32;;;;;;;;;3.00;3.00;;;;;;;;5069105;28;45440;-70
2022/02/05 01:27:08;;;;;;;;;2.50;1.50;;;;;;;;5065590;28;45838;-71
2022/02/05 01:32:06;;;;;;;;;3.00;1.75;;;;;;;;5072375;27;45421;-70
2022/02/05 01:34:42;;;;;;;;;2.00;2.00;;;;;;;;5072659;28;45489;-70
2022/02/05 01:50:52;;;;;;;;;2.00;1.00;;;;;;;;5074019;27;45923;-71
2022/02/05 01:56:44;;;;;;;;;3.50;0.75;;;;;;;;5073394;27;45319;-72
2022/02/05 01:59:25;;;;;;;;;1.25;1.25;;;;;;;;5067299;28;46130;-70
2022/02/05 02:09:30;;;;;;;;;1.75;1.75;;;;;;;;5074194;28;45427;-71
2022/02/05 02:12:39;;;;;;;;;2.50;2.50;;;;;;;;5081473;27;45740;-70
2022/02/05 02:15:13;;;;;;;;;3.00;2.00;;;;;;;;5073674;28;45349;-70
2022/02/05 02:18:48;;;;;;;;;2.50;2.50;;;;;;;;5058239;28;45545;-70
2022/02/05 02:23:54;;;;;;;;;2.50;1.00;;;;;;;;4999571;28;45409;-70
2022/02/05 02:28:52;;;;;;;;;1.75;1.75;;;;;;;;5012416;28;45585;-70
2022/02/05 02:31:23;;;;;;;;;2.75;1.00;;;;;;;;5004277;28;46448;-69
2022/02/05 02:33:52;;;;;;;;;1.00;1.00;;;;;;;;5004884;28;45491;-69
2022/02/05 02:36:46;;;;;;;;;3.00;1.00;;;;;;;;5013319;28;45598;-69
2022/02/05 02:39:14;;;;;;;;;1.33;1.33;;;;;;;;5009217;28;45539;-69
2022/02/05 02:41:54;;;;;;;;;2.00;2.00;;;;;;;;5012731;28;47076;-70
2022/02/05 02:44:19;;;;;;;;;1.25;1.25;;;;;;;;5012436;28;45450;-69
2022/02/05 02:46:45;;;;;;;;;1.25;1.00;;;;;;;;5013098;28;45426;-69
2022/02/05 02:49:14;;;;;;;;;2.25;1.50;;;;;;;;5009350;28;45629;-70
2022/02/05 02:57:19;;;;;;;;;3.75;2.00;;;;;;;;5011089;28;45516;-69
2022/02/05 02:59:58;;;;;;;;;3.50;3.00;;;;;;;;5049431;28;45525;-70
2022/02/05 03:02:25;;;;;;;;;4.00;1.50;;;;;;;;5072563;28;45572;-70
2022/02/05 03:04:53;;;;;;;;;3.75;1.00;;;;;;;;5076665;27;45331;-69
2022/02/05 03:07:32;;;;;;;;;2.50;2.00;;;;;;;;5076497;27;45364;-69
2022/02/05 03:09:58;;;;;;;;;2.00;2.00;;;;;;;;5076272;27;45395;-70
2022/02/05 03:12:23;;;;;;;;;1.25;1.25;;;;;;;;5075439;27;45553;-70
2022/02/05 03:14:49;;;;;;;;;5.25;2.00;;;;;;;;5074018;27;45515;-70
2022/02/05 03:17:18;;;;;;;;;2.00;2.00;;;;;;;;5073819;28;48274;-70
2022/02/05 03:19:44;;;;;;;;;1.00;1.00;;;;;;;;5073744;28;45377;-69
2022/02/05 03:22:09;;;;;;;;;0.50;0.50;;;;;;;;5070833;28;46795;-69
2022/02/05 03:24:34;;;;;;;;;2.00;2.00;;;;;;;;5073938;27;45545;-69
2022/02/05 03:27:00;;;;;;;;;2.00;2.00;;;;;;;;5070627;27;45495;-70
2022/02/05 03:29:25;;;;;;;;;2.50;1.00;;;;;;;;5072783;27;45584;-69
2022/02/05 03:31:50;;;;;;;;;1.00;1.00;;;;;;;;5074402;28;46178;-70
2022/02/05 03:34:15;;;;;;;;;1.00;1.00;;;;;;;;5071748;28;45822;-70
2022/02/05 03:36:41;;;;;;;;;1.75;1.75;;;;;;;;5072386;28;45350;-69
2022/02/05 03:39:07;;;;;;;;;2.00;2.00;;;;;;;;5072794;28;45314;-70
2022/02/05 03:41:32;;;;;;;;;3.75;2.00;;;;;;;;5071156;27;45615;-70
2022/02/05 03:43:58;;;;;;;;;1.00;1.00;;;;;;;;5081200;27;45335;-69
2022/02/05 03:46:23;;;;;;;;;1.00;1.00;;;;;;;;5073253;27;45296;-69
2022/02/05 03:48:48;;;;;;;;;1.75;1.75;;;;;;;;5073340;27;45530;-70
2022/02/05 03:51:13;;;;;;;;;1.25;1.00;;;;;;;;5071032;27;45402;-70
2022/02/05 03:53:39;;;;;;;;;4.00;3.00;;;;;;;;5053125;28;45880;-70
2022/02/05 03:56:04;;;;;;;;;2.25;2.25;;;;;;;;5073948;28;45321;-70
2022/02/05 03:58:29;;;;;;;;;1.00;1.00;;;;;;;;5073949;27;45345;-70
2022/02/05 04:00:54;;;;;;;;;1.00;1.00;;;;;;;;5072857;28;47206;-70
2022/02/05 04:03:19;;;;;;;;;2.75;2.75;;;;;;;;5076479;27;45611;-70
2022/02/05 04:05:44;;;;;;;;;1.00;1.00;;;;;;;;5069058;28;45502;-69
2022/02/05 04:08:12;;;;;;;;;1.67;1.33;;;;;;;;5079478;27;45326;-70
2022/02/05 04:10:47;;;;;;;;;1.00;1.00;;;;;;;;5075371;28;46261;-69
2022/02/05 04:16:11;;;;;;;;;3.00;1.25;;;;;;;;5079412;27;45626;-69
2022/02/05 04:18:36;;;;;;;;;2.33;2.00;;;;;;;;5081505;27;45248;-69
2022/02/05 04:21:03;;;;;;;;;0.75;0.75;;;;;;;;5076259;27;45509;-69
2022/02/05 04:23:28;;;;;;;;;2.50;1.00;;;;;;;;5059822;28;45558;-69
2022/02/05 04:25:53;;;;;;;;;2.00;2.00;;;;;;;;5077854;27;45351;-70
2022/02/05 04:28:18;;;;;;;;;2.00;1.00;;;;;;;;5084323;27;45541;-69
2022/02/05 04:30:43;;;;;;;;;2.25;2.25;;;;;;;;5083628;27;46388;-70
2022/02/05 04:33:09;;;;;;;;;1.00;1.00;;;;;;;;5076163;27;45449;-69
2022/02/05 04:35:34;;;;;;;;;1.75;1.00;;;;;;;;5075860;28;45395;-70
2022/02/05 04:38:02;;;;;;;;;4.00;3.25;;;;;;;;5080684;27;45276;-70
2022/02/05 04:40:36;;;;;;;;;1.00;1.00;;;;;;;;5073554;27;45662;-70
2022/02/05 04:56:39;;;;;;;;;1.25;1.25;;;;;;;;5076127;27;45366;-69
2022/02/05 05:03:38;;;;;;;;;0.33;0.33;;;;;;;;5074862;28;45451;-69
2022/02/05 05:21:40;;;;;;;;;2.00;2.00;;;;;;;;5077107;27;45747;-70
2022/02/05 05:24:05;;;;;;;;;1.00;1.00;;;;;;;;5073165;28;46961;-70
2022/02/05 05:26:30;;;;;;;;;2.00;2.00;;;;;;;;5075098;28;45150;-70
2022/02/05 05:28:55;;;;;;;;;1.25;1.00;;;;;;;;5079196;27;45374;-69
2022/02/05 05:31:20;;;;;;;;;2.75;1.00;;;;;;;;5074781;28;46500;-69
2022/02/05 05:33:46;;;;;;;;;2.00;2.00;;;;;;;;5072209;28;45416;-69
2022/02/05 05:36:11;;;;;;;;;1.00;1.00;;;;;;;;5079601;27;45381;-69
2022/02/05 05:38:36;;;;;;;;;2.00;2.00;;;;;;;;5077529;27;45348;-70
2022/02/05 05:41:01;;;;;;;;;1.25;1.25;;;;;;;;5076265;27;45381;-70
2022/02/05 05:43:47;;;;;;;;;1.75;1.75;;;;;;;;5073574;28;45374;-69
2022/02/05 05:48:56;;;;;;;;;4.00;3.00;;;;;;;;5078083;27;45658;-69
2022/02/05 05:51:21;;;;;;;;;2.00;1.25;;;;;;;;5076661;27;47306;-69
2022/02/05 05:53:47;;;;;;;;;1.00;1.00;;;;;;;;5090620;27;45392;-70
2022/02/05 05:56:12;;;;;;;;;1.00;1.00;;;;;;;;5081612;27;45272;-70
2022/02/05 05:58:38;;;;;;;;;1.00;1.00;;;;;;;;5073700;28;45249;-69
2022/02/05 06:01:03;;;;;;;;;4.25;1.00;;;;;;;;5074277;28;45472;-69
2022/02/05 06:03:28;;;;;;;;;1.50;1.50;;;;;;;;5074269;28;45558;-69
2022/02/05 06:05:53;;;;;;;;;1.25;1.00;;;;;;;;5073955;28;45521;-69
2022/02/05 06:08:19;;;;;;;;;1.75;1.75;;;;;;;;5073406;28;45465;-69
2022/02/05 06:10:44;;;;;;;;;2.00;2.00;;;;;;;;5074639;27;46969;-69
2022/02/05 06:13:10;;;;;;;;;1.50;1.50;;;;;;;;5076933;27;45335;-69
2022/02/05 06:15:37;;;;;;;;;2.25;1.00;;;;;;;;5074328;27;45623;-69
2022/02/05 06:18:02;;;;;;;;;1.00;1.00;;;;;;;;5084649;27;45514;-69
2022/02/05 06:20:27;;;;;;;;;1.75;1.00;;;;;;;;5071510;28;45319;-70
2022/02/05 06:22:52;;;;;;;;;0.00;0.00;;;;;;;;5075783;28;45292;-69
2022/02/05 06:25:18;;;;;;;;;2.25;0.25;;;;;;;;5073078;28;45375;-69
2022/02/05 06:27:43;;;;;;;;;1.75;1.75;;;;;;;;5051291;28;45861;-69
2022/02/05 06:30:08;;;;;;;;;1.75;1.75;;;;;;;;5063140;28;45499;-69
2022/02/05 06:32:34;;;;;;;;;1.00;1.00;;;;;;;;5078996;27;45401;-70
2022/02/05 06:34:59;;;;;;;;;1.75;1.75;;;;;;;;5086201;27;45633;-69
2022/02/05 06:37:24;;;;;;;;;1.00;1.00;;;;;;;;5075445;27;45521;-69
2022/02/05 06:39:49;;;;;;;;;1.25;1.00;;;;;;;;5071757;28;46357;-69
2022/02/05 06:42:14;;;;;;;;;1.75;1.75;;;;;;;;5072446;28;45363;-70
2022/02/05 06:44:40;;;;;;;;;2.00;2.00;;;;;;;;5072319;27;45450;-69
2022/02/05 06:47:05;;;;;;;;;3.00;1.00;;;;;;;;5075104;27;45467;-70
2022/02/05 06:49:30;;;;;;;;;3.00;1.75;;;;;;;;5072586;27;45359;-70
2022/02/05 06:51:56;;;;;;;;;1.00;1.00;;;;;;;;5073195;28;45511;-69
2022/02/05 06:54:21;;;;;;;;;4.50;0.75;;;;;;;;5073765;28;45247;-69
2022/02/05 06:56:46;;;;;;;;;0.25;0.25;;;;;;;;5073683;28;45285;-69
2022/02/05 06:59:12;;;;;;;;;1.00;1.00;;;;;;;;5073885;28;46686;-69
2022/02/05 07:01:37;;;;;;;;;1.00;1.00;;;;;;;;5072582;28;45454;-69
2022/02/05 07:04:04;;;;;;;;;1.00;1.00;;;;;;;;5077375;27;45509;-69
2022/02/05 07:06:29;;;;;;;;;2.75;1.75;;;;;;;;5080776;27;45455;-69
2022/02/05 07:08:55;;;;;;;;;2.00;2.00;;;;;;;;5076752;27;47189;-69
2022/02/05 07:11:21;;;;;;;;;1.00;1.00;;;;;;;;5074128;27;45581;-70
2022/02/05 07:13:48;;;;;;;;;2.25;2.25;;;;;;;;5075404;28;45474;-69
2022/02/05 07:16:22;;;;;;;;;3.00;1.50;;;;;;;;5076509;27;45453;-69
2022/02/05 07:19:12;;;;;;;;;0.75;0.75;;;;;;;;5074204;28;46314;-69
2022/02/05 07:21:38;;;;;;;;;1.00;1.00;;;;;;;;5080007;27;45578;-69
2022/02/05 07:29:16;;;;;;;;;0.67;0.67;;;;;;;;5072994;27;45387;-69
2022/02/05 07:31:42;;;;;;;;;0.75;0.75;;;;;;;;5077688;27;45375;-69
2022/02/05 07:34:07;;;;;;;;;1.00;1.00;;;;;;;;5072967;27;45451;-69
2022/02/05 07:36:32;;;;;;;;;2.00;2.00;;;;;;;;5075712;27;45404;-69
2022/02/05 07:38:58;;;;;;;;;2.00;2.00;;;;;;;;5078005;27;46102;-69
2022/02/05 07:41:23;;;;;;;;;2.25;1.50;;;;;;;;5075919;27;45414;-69
2022/02/05 07:43:48;;;;;;;;;2.00;1.00;;;;;;;;5082218;27;45506;-69
2022/02/05 07:46:14;;;;;;;;;2.00;1.00;;;;;;;;5076578;27;45363;-69
2022/02/05 07:48:40;;;;;;;;;1.00;1.00;;;;;;;;5073504;27;45267;-70
2022/02/05 07:51:06;;;;;;;;;0.75;0.50;;;;;;;;5076075;28;45404;-70
2022/02/05 07:53:31;;;;;;;;;2.00;2.00;;;;;;;;5090957;27;45240;-71
2022/02/05 07:55:57;;;;;;;;;1.00;1.00;;;;;;;;5074187;27;45220;-70
2022/02/05 07:58:23;;;;;;;;;0.75;0.75;;;;;;;;5076291;27;46050;-70
2022/02/05 08:00:48;;;;;;;;;1.00;1.00;;;;;;;;5075958;28;45368;-70
2022/02/05 08:03:13;;;;;;;;;1.75;1.75;;;;;;;;5078467;27;45326;-70
2022/02/05 08:05:38;;;;;;;;;1.00;1.00;;;;;;;;5075591;27;45529;-70
2022/02/05 08:08:07;;;;;;;;;2.75;1.00;;;;;;;;5077258;28;45466;-70
2022/02/05 08:10:37;;;;;;;;;3.00;2.00;;;;;;;;5076824;28;47034;-69
2022/02/05 08:13:02;;;;;;;;;1.00;1.00;;;;;;;;5077613;27;48792;-70
2022/02/05 08:15:30;;;;;;;;;1.00;1.00;;;;;;;;5074263;27;45537;-69
2022/02/05 08:17:56;;;;;;;;;1.00;1.00;;;;;;;;5074452;27;46620;-69
2022/02/05 08:20:22;;;;;;;;;2.50;1.00;;;;;;;;5075681;27;45349;-69
2022/02/05 08:22:47;;;;;;;;;1.67;1.67;;;;;;;;5078257;28;45412;-69
2022/02/05 08:25:13;;;;;;;;;3.00;2.00;;;;;;;;5076803;27;45469;-69
2022/02/05 08:27:40;;;;;;;;;1.00;0.00;;;;;;;;5073042;28;45860;-70
2022/02/05 08:30:09;;;;;;;;;1.25;1.25;;;;;;;;5073322;28;45285;-70
2022/02/05 08:32:34;;;;;;;;;1.00;1.00;;;;;;;;5075425;27;45343;-70
2022/02/05 08:35:00;;;;;;;;;3.25;1.50;;;;;;;;5077893;27;45343;-70
2022/02/05 08:37:26;;;;;;;;;1.00;1.00;;;;;;;;5077752;27;46965;-70
2022/02/05 08:39:51;;;;;;;;;2.25;1.00;;;;;;;;5078056;27;45640;-70
2022/02/05 08:42:16;;;;;;;;;3.50;2.00;;;;;;;;5075127;28;45299;-70
2022/02/05 08:44:42;;;;;;;;;2.00;1.00;;;;;;;;5077110;27;45343;-70
2022/02/05 08:47:07;;;;;;;;;1.75;1.75;;;;;;;;5059517;28;46495;-70
2022/02/05 08:49:32;;;;;;;;;1.00;1.00;;;;;;;;5076894;27;45431;-70
2022/02/05 08:52:00;;;;;;;;;1.00;1.00;;;;;;;;5075315;28;45480;-68
2022/02/05 08:54:26;;;;;;;;;1.00;1.00;;;;;;;;5075502;27;45646;-69
2022/02/05 08:56:53;;;;;;;;;2.25;2.00;;;;;;;;5075351;28;45458;-69
2022/02/05 08:59:18;;;;;;;;;2.00;1.00;;;;;;;;5076051;27;45616;-70
2022/02/05 09:01:53;;;;;;;;;1.00;1.00;;;;;;;;5074942;28;45429;-69
2022/02/05 09:06:46;;;;;;;;;2.25;1.00;;;;;;;;5074328;28;46123;-72
2022/02/05 09:11:50;;;;;;;;;1.00;1.00;;;;;;;;5071575;28;45631;-71
2022/02/05 09:14:41;;;;;;;;;1.25;1.25;;;;;;;;5074460;27;45502;-71
2022/02/05 09:17:02;;;;;;;;;1.00;1.00;;;;;;;;5071671;28;46153;-71
2022/02/05 09:19:28;;;;;;;;;1.00;1.00;;;;;;;;5071866;28;45410;-71
2022/02/05 09:21:54;;;;;;;;;2.00;1.00;;;;;;;;5056653;28;45424;-71
2022/02/05 09:24:19;;;;;;;;;0.00;0.00;;;;;;;;5074812;28;45549;-71
2022/02/05 09:26:48;;;;;;;;;1.75;1.00;;;;;;;;5057378;28;46456;-71
2022/02/05 09:29:22;;;;;;;;;3.25;2.00;;;;;;;;5073860;28;45316;-71
2022/02/05 09:31:47;;;;;;;;;2.00;2.00;;;;;;;;5056942;28;45453;-71
2022/02/05 09:34:13;;;;;;;;;1.25;1.25;;;;;;;;5072242;28;45462;-71
2022/02/05 09:36:43;;;;;;;;;1.00;1.00;;;;;;;;5072031;28;46110;-71
2022/02/05 09:39:08;;;;;;;;;3.00;1.75;;;;;;;;5071499;28;45454;-71
2022/02/05 09:41:34;;;;;;;;;0.00;0.00;;;;;;;;5079797;27;45434;-73
2022/02/05 09:43:59;;;;;;;;;1.50;1.50;;;;;;;;5074822;28;45444;-72
2022/02/05 09:46:24;;;;;;;;;1.75;1.75;;;;;;;;5072469;28;46247;-72
2022/02/05 09:48:50;;;;;;;;;4.25;1.00;;;;;;;;5072604;28;45541;-71
2022/02/05 09:51:20;;;;;;;;;1.67;1.67;;;;;;;;5073217;28;45489;-72
2022/02/05 09:53:49;;;;;;;;;2.00;1.00;;;;;;;;5074234;28;45426;-72
2022/02/05 09:56:15;;;;;;;;;1.50;1.50;;;;;;;;5056217;28;46078;-72
2022/02/05 09:58:41;;;;;;;;;1.67;1.67;;;;;;;;5075428;28;45453;-72
2022/02/05 10:01:11;;;;;;;;;2.75;1.50;;;;;;;;5062036;27;45452;-71
2022/02/05 10:03:38;;;;;;;;;2.00;2.00;;;;;;;;5048484;28;45619;-71
2022/02/05 10:06:05;;;;;;;;;1.00;1.00;;;;;;;;5073337;28;47477;-72
2022/02/05 10:08:32;;;;;;;;;2.75;2.75;;;;;;;;5057046;28;45626;-71
2022/02/05 10:10:58;;;;;;;;;2.00;2.00;;;;;;;;5071355;27;45398;-71
2022/02/05 10:13:27;;;;;;;;;0.75;0.75;;;;;;;;5071541;27;45659;-72
2022/02/05 10:15:54;;;;;;;;;1.00;1.00;;;;;;;;5072095;28;46346;-72
2022/02/05 10:18:23;;;;;;;;;1.00;1.00;;;;;;;;5071623;28;45375;-72
2022/02/05 10:20:48;;;;;;;;;2.33;1.00;;;;;;;;5071798;28;45270;-71
2022/02/05 10:23:14;;;;;;;;;1.00;1.00;;;;;;;;5074250;27;45292;-73
2022/02/05 10:25:39;;;;;;;;;1.00;1.00;;;;;;;;5057186;28;46261;-72
2022/02/05 10:28:08;;;;;;;;;2.00;0.00;;;;;;;;5071916;28;45406;-72
2022/02/05 10:30:33;;;;;;;;;2.00;2.00;;;;;;;;5072995;28;45356;-72
2022/02/05 10:33:09;;;;;;;;;1.00;1.00;;;;;;;;5071979;28;45424;-71
2022/02/05 10:35:43;;;;;;;;;1.00;1.00;;;;;;;;5077041;27;45475;-71
2022/02/05 10:40:45;;;;;;;;;3.33;1.67;;;;;;;;5072691;27;45372;-72
2022/02/05 10:43:11;;;;;;;;;1.00;1.00;;;;;;;;5072489;28;45362;-72
2022/02/05 10:45:41;;;;;;;;;3.00;1.00;;;;;;;;5072220;28;47027;-73
2022/02/05 10:48:07;;;;;;;;;1.00;1.00;;;;;;;;5071712;28;48553;-72
2022/02/05 10:50:35;;;;;;;;;3.00;2.00;;;;;;;;5071606;28;45423;-75
2022/02/05 10:53:06;;;;;;;;;5.50;2.25;;;;;;;;5071065;28;45325;-75
2022/02/05 11:06:50;;;;;;;;;2.25;2.00;;;;;;;;5071423;28;45823;-76
2022/02/05 11:09:15;;;;;;;;;3.33;1.00;;;;;;;;5070637;28;45474;-77
2022/02/05 11:14:57;;;;;;;;;1.00;1.00;;;;;;;;5079219;28;45272;-77
2022/02/05 11:19:50;;;;;;;;;3.00;3.00;;;;;;;;5081061;27;45404;-76
2022/02/05 11:22:16;;;;;;;;;0.33;0.33;;;;;;;;5060694;28;45508;-73
2022/02/05 11:24:42;;;;;;;;;0.00;0.00;;;;;;;;5078789;27;45335;-72
2022/02/05 11:27:07;;;;;;;;;2.00;1.00;;;;;;;;5078981;27;45615;-72
2022/02/05 11:29:32;;;;;;;;;0.00;0.00;;;;;;;;5079525;27;48259;-72
2022/02/05 11:32:16;;;;;;;;;2.25;1.00;;;;;;;;5082275;27;45309;-72
2022/02/05 11:34:49;;;;;;;;;0.67;0.67;;;;;;;;5080062;27;45546;-73
2022/02/05 11:37:15;;;;;;;;;2.25;1.00;;;;;;;;5078355;27;45531;-74
2022/02/05 11:39:50;;;;;;;;;1.25;1.00;;;;;;;;5084295;27;45446;-74
2022/02/05 11:42:30;;;;;;;;;0.00;0.00;;;;;;;;5088210;27;45477;-74
2022/02/05 11:44:56;;;;;;;;;2.00;2.00;;;;;;;;5078104;27;45515;-74
2022/02/05 11:47:22;;;;;;;;;1.75;1.00;;;;;;;;5073750;28;46857;-75
2022/02/05 11:49:53;;;;;;;;;2.25;2.00;;;;;;;;5080046;27;45250;-75
2022/02/05 11:52:36;;;;;;;;;1.50;0.00;;;;;;;;5077722;28;45713;-74
2022/02/05 11:55:15;;;;;;;;;1.50;1.00;;;;;;;;5077843;27;45655;-74
2022/02/05 11:57:44;;;;;;;;;2.33;1.00;;;;;;;;5077924;27;46786;-75
2022/02/05 12:00:11;;;;;;;;;0.00;0.00;;;;;;;;5078169;27;46593;-74
2022/02/05 12:02:37;;;;;;;;;0.50;0.50;;;;;;;;5070402;28;45313;-74
2022/02/05 12:05:13;;;;;;;;;1.00;0.50;;;;;;;;5069881;27;45874;-74
2022/02/05 12:07:59;;;;;;;;;2.25;2.00;;;;;;;;5072715;27;46851;-74
2022/02/05 12:10:52;;;;;;;;;2.50;1.50;;;;;;;;5073985;27;45470;-74
2022/02/05 12:13:20;;;;;;;;;2.00;1.00;;;;;;;;5073303;27;45403;-75
2022/02/05 12:16:10;;;;;;;;;3.00;0.00;;;;;;;;5076341;27;45580;-74
2022/02/05 12:18:54;;;;;;;;;1.00;1.00;;;;;;;;5064458;27;45463;-74
2022/02/05 12:21:27;;;;;;;;;1.25;1.25;;;;;;;;5074317;27;45376;-74
2022/02/05 12:24:21;;;;;;;;;4.33;1.00;;;;;;;;5065382;28;45414;-74
2022/02/05 12:26:44;;;;;;;;;1.00;0.67;;;;;;;;5069291;28;45218;-75
2022/02/05 12:29:22;;;;;;;;;4.25;2.00;;;;;;;;5064928;28;46888;-73
2022/02/05 12:31:51;;;;;;;;;1.75;0.00;;;;;;;;5063989;28;45522;-74
2022/02/05 12:34:16;;;;;;;;;1.67;0.67;;;;;;;;5061901;28;45511;-75
2022/02/05 12:36:44;;;;;;;;;3.00;1.00;;;;;;;;5068307;28;45581;-75
2022/02/05 12:39:22;;;;;;;;;1.00;1.00;;;;;;;;5063469;28;47226;-75
2022/02/05 12:41:48;;;;;;;;;1.00;1.00;;;;;;;;5069997;28;45436;-77
2022/02/05 12:44:13;;;;;;;;;1.33;0.00;;;;;;;;5073398;28;46911;-75
2022/02/05 12:46:42;;;;;;;;;1.50;1.50;;;;;;;;5073241;28;45539;-75
2022/02/05 12:49:19;;;;;;;;;0.00;0.00;;;;;;;;5073200;28;45550;-74
2022/02/05 12:51:44;;;;;;;;;3.00;1.75;;;;;;;;5073338;28;45554;-74
2022/02/05 12:54:13;;;;;;;;;3.00;1.00;;;;;;;;5073895;28;45437;-73
2022/02/05 12:56:42;;;;;;;;;2.00;0.00;;;;;;;;5071315;28;46707;-73
2022/02/05 12:59:12;;;;;;;;;1.33;0.67;;;;;;;;5075270;27;46476;-73
2022/02/05 13:01:47;;;;;;;;;0.00;0.00;;;;;;;;5075563;27;45553;-73
2022/02/05 13:04:14;;;;;;;;;3.00;1.00;;;;;;;;5071196;28;45432;-73
2022/02/05 13:06:39;;;;;;;;;2.25;1.00;;;;;;;;5074507;27;45438;-73
2022/02/05 13:09:16;;;;;;;;;0.00;0.00;;;;;;;;5069463;28;46293;-73
2022/02/05 13:11:42;;;;;;;;;1.33;0.00;;;;;;;;5058893;28;45559;-73
2022/02/05 13:14:07;;;;;;;;;1.00;1.00;;;;;;;;5056781;28;45701;-74
2022/02/05 13:16:37;;;;;;;;;1.75;1.00;;;;;;;;5070870;28;45360;-73
2022/02/05 13:19:20;;;;;;;;;0.33;0.00;;;;;;;;5060990;28;47359;-73
2022/02/05 13:27:31;;;;;;;;;0.00;0.00;;;;;;;;5065721;28;45530;-73
2022/02/05 13:33:35;;;;;;;;;1.00;1.00;;;;;;;;5073202;27;45630;-73
2022/02/05 13:35:26;;;;;;;;;2.00;0.00;;;;;;;;5067758;28;45384;-73
2022/02/05 13:37:55;;;;;;;;;3.00;1.00;;;;;;;;5063113;28;45457;-72
2022/02/05 13:40:29;;;;;;;;;0.00;0.00;;;;;;;;5071843;27;45640;-72
2022/02/05 13:43:04;;;;;;;;;1.25;1.00;;;;;;;;5074329;27;45580;-72
2022/02/05 13:45:36;;;;;;;;;0.67;0.33;;;;;;;;5074555;28;45542;-72
2022/02/05 13:48:04;;;;;;;;;1.00;1.00;;;;;;;;5074277;28;45481;-72
2022/02/05 13:50:34;;;;;;;;;2.75;1.00;;;;;;;;5073268;27;46301;-72
2022/02/05 13:53:02;;;;;;;;;2.33;0.33;;;;;;;;5071879;28;45533;-72
2022/02/05 13:55:32;;;;;;;;;0.00;0.00;;;;;;;;5074653;28;45513;-72
2022/02/05 13:58:07;;;;;;;;;1.00;1.00;;;;;;;;5074410;28;45506;-72
2022/02/05 14:00:37;;;;;;;;;0.75;0.75;;;;;;;;5071544;28;46144;-72
2022/02/05 14:03:03;;;;;;;;;0.25;0.00;;;;;;;;5063625;27;45442;-72
2022/02/05 14:05:28;;;;;;;;;1.00;1.00;;;;;;;;5082063;27;45347;-72
2022/02/05 14:07:53;;;;;;;;;1.75;1.00;;;;;;;;5076395;28;45338;-72
2022/02/05 14:10:19;;;;;;;;;0.33;0.33;;;;;;;;5074297;27;45486;-72
2022/02/05 14:12:49;;;;;;;;;3.00;1.33;;;;;;;;5079977;27;45442;-72
2022/02/05 14:15:14;;;;;;;;;1.50;1.00;;;;;;;;5064029;27;45617;-72
2022/02/05 14:17:40;;;;;;;;;1.00;1.00;;;;;;;;5068499;28;45355;-72
2022/02/05 14:20:06;;;;;;;;;2.67;2.00;;;;;;;;5055475;28;46293;-72
2022/02/05 14:22:35;;;;;;;;;1.00;1.00;;;;;;;;5059086;28;45426;-72
2022/02/05 14:25:04;;;;;;;;;1.00;0.00;;;;;;;;5059733;28;45482;-72
2022/02/05 14:27:31;;;;;;;;;0.00;0.00;;;;;;;;5060271;28;45867;-73
2022/02/05 14:30:00;;;;;;;;;1.33;0.00;;;;;;;;5057429;28;47530;-72
2022/02/05 14:35:05;;;;;;;;;0.00;0.00;;;;;;;;5065975;28;45473;-72
2022/02/05 14:40:28;;;;;;;;;0.00;0.00;;;;;;;;5066878;28;45786;-72
2022/02/05 14:42:53;;;;;;;;;0.00;0.00;;;;;;;;5065142;28;45337;-73
2022/02/05 14:45:18;;;;;;;;;3.00;1.00;;;;;;;;5065228;28;45366;-73
2022/02/05 14:47:43;;;;;;;;;1.00;1.00;;;;;;;;5062106;28;45490;-73
2022/02/05 14:50:09;;;;;;;;;1.00;1.00;;;;;;;;5073282;28;48479;-73
2022/02/05 14:52:34;;;;;;;;;1.00;1.00;;;;;;;;5072781;28;45457;-73
2022/02/05 14:54:59;;;;;;;;;0.67;0.00;;;;;;;;5072208;28;46043;-73
2022/02/05 14:57:24;;;;;;;;;1.00;1.00;;;;;;;;5072236;28;45403;-73
2022/02/05 14:59:50;;;;;;;;;0.50;0.00;;;;;;;;5071370;28;45935;-73
2022/02/05 15:02:15;;;;;;;;;2.00;0.00;;;;;;;;5074439;27;45251;-73
2022/02/05 15:04:41;;;;;;;;;0.00;0.00;;;;;;;;5072972;28;45398;-73
2022/02/05 15:07:07;;;;;;;;;1.00;1.00;;;;;;;;5071693;28;45572;-73
2022/02/05 15:09:32;;;;;;;;;0.50;0.00;;;;;;;;5072727;27;45511;-73
2022/02/05 15:11:57;;;;;;;;;1.50;0.25;;;;;;;;5073047;28;45485;-73
2022/02/05 15:14:23;;;;;;;;;4.00;1.00;;;;;;;;5073253;28;45631;-73
2022/02/05 15:16:48;;;;;;;;;0.00;0.00;;;;;;;;5074842;28;45578;-73
2022/02/05 15:19:14;;;;;;;;;0.00;0.00;;;;;;;;5072205;27;46228;-73
2022/02/05 15:21:40;;;;;;;;;0.00;0.00;;;;;;;;5072889;27;45519;-73
2022/02/05 15:24:08;;;;;;;;;0.75;0.75;;;;;;;;5073566;28;45378;-73
2022/02/05 15:26:35;;;;;;;;;2.00;1.00;;;;;;;;5058650;28;45545;-73
2022/02/05 15:29:02;;;;;;;;;2.00;0.33;;;;;;;;5070659;28;45569;-72
2022/02/05 15:31:27;;;;;;;;;0.00;0.00;;;;;;;;5072872;28;45447;-73
2022/02/05 15:33:56;;;;;;;;;1.67;0.00;;;;;;;;5071655;27;45445;-73
2022/02/05 15:36:28;;;;;;;;;2.00;0.00;;;;;;;;5071282;28;45550;-73
2022/02/05 15:44:07;;;;;;;;;0.67;0.00;;;;;;;;5070714;27;45349;-74
2022/02/05 15:46:32;;;;;;;;;0.00;0.00;;;;;;;;5073392;28;45357;-72
2022/02/05 15:48:57;;;;;;;;;1.00;1.00;;;;;;;;5071095;28;45384;-73
2022/02/05 15:51:25;;;;;;;;;0.00;0.00;;;;;;;;5072943;27;45573;-73
2022/02/05 15:53:56;;;;;;;;;1.00;1.00;;;;;;;;5072529;28;45607;-73
2022/02/05 15:56:27;;;;;;;;;3.00;1.00;;;;;;;;5073451;28;45366;-73
2022/02/05 15:58:54;;;;;;;;;0.50;0.50;;;;;;;;5078061;28;46498;-74
2022/02/05 16:01:20;;;;;;;;;1.00;1.00;;;;;;;;5074351;27;45421;-74
2022/02/05 16:03:45;;;;;;;;;1.00;1.00;;;;;;;;5076155;27;45544;-74
2022/02/05 16:06:10;;;;;;;;;3.00;1.00;;;;;;;;5074712;27;48648;-73
2022/02/05 16:08:35;;;;;;;;;2.33;0.00;;;;;;;;5074569;27;45453;-73
2022/02/05 16:11:00;;;;;;;;;2.25;0.00;;;;;;;;5078213;28;45473;-73
2022/02/05 16:13:26;;;;;;;;;1.75;0.00;;;;;;;;5076357;27;45322;-73
2022/02/05 16:15:51;;;;;;;;;1.00;1.00;;;;;;;;5074043;28;45460;-72
2022/02/05 16:18:16;;;;;;;;;1.00;1.00;;;;;;;;5074113;27;45968;-72
2022/02/05 16:20:41;;;;;;;;;2.75;0.00;;;;;;;;5071628;28;46418;-72
2022/02/05 16:23:07;;;;;;;;;0.00;0.00;;;;;;;;5077360;28;45452;-71
2022/02/05 16:25:32;;;;;;;;;3.00;1.00;;;;;;;;5070490;28;45526;-73
2022/02/05 16:27:58;;;;;;;;;3.00;0.75;;;;;;;;5075333;28;46368;-71
2022/02/05 16:30:24;;;;;;;;;0.25;0.25;;;;;;;;5053764;28;45506;-71
2022/02/05 16:32:51;;;;;;;;;1.00;1.00;;;;;;;;5075399;27;45559;-72
2022/02/05 16:35:17;;;;;;;;;2.50;1.25;;;;;;;;5089589;27;45221;-73
2022/02/05 16:37:42;;;;;;;;;0.75;0.00;;;;;;;;5074832;28;45651;-72
2022/02/05 16:40:11;;;;;;;;;0.67;0.00;;;;;;;;5077884;27;45308;-70
2022/02/05 16:42:37;;;;;;;;;0.00;0.00;;;;;;;;5075789;27;45487;-71
2022/02/05 16:45:07;;;;;;;;;1.50;0.25;;;;;;;;5073427;28;45475;-72
2022/02/05 16:47:32;;;;;;;;;1.00;1.00;;;;;;;;5058297;28;45626;-71
2022/02/05 16:49:58;;;;;;;;;2.00;0.25;;;;;;;;5077262;27;45453;-73
2022/02/05 16:52:29;;;;;;;;;2.75;1.50;;;;;;;;5075527;27;45620;-70
2022/02/05 16:54:54;;;;;;;;;1.00;0.00;;;;;;;;5073584;27;45306;-71
2022/02/05 16:57:20;;;;;;;;;2.00;2.00;;;;;;;;5075134;28;45661;-70
2022/02/05 16:59:45;;;;;;;;;1.25;1.25;;;;;;;;5073463;27;45462;-70
2022/02/05 17:02:10;;;;;;;;;2.00;1.00;;;;;;;;5076113;28;45276;-71
2022/02/05 17:04:35;;;;;;;;;1.00;1.00;;;;;;;;5076104;27;45320;-70
2022/02/05 17:07:02;;;;;;;;;0.00;0.00;;;;;;;;5073361;28;45519;-70
2022/02/05 17:09:29;;;;;;;;;1.75;1.25;;;;;;;;5075132;28;45359;-70
2022/02/05 17:11:59;;;;;;;;;0.50;0.50;;;;;;;;5075938;27;45450;-70
2022/02/05 17:14:25;;;;;;;;;1.00;1.00;;;;;;;;5074333;27;45765;-70
2022/02/05 17:16:51;;;;;;;;;1.00;0.50;;;;;;;;5078823;27;45493;-69
2022/02/05 17:19:16;;;;;;;;;2.25;1.00;;;;;;;;5072801;28;45376;-70
2022/02/05 17:21:41;;;;;;;;;1.25;1.00;;;;;;;;5055522;28;45534;-70
2022/02/05 17:24:07;;;;;;;;;3.00;1.00;;;;;;;;5073247;27;45506;-69
2022/02/05 17:26:32;;;;;;;;;1.00;1.00;;;;;;;;5057675;28;45647;-71